Time;durP1;ratioP1;P1;durP2;ratioP2;P2;SDS_P1;SDS_P2;PMS_P1;PMS_P2;Temp;Humidity;BMP_temperature;BMP_pressure;BME280_temperature;BME280_humidity;BME280_pressure;Samples;Min_cycle;Max_cycle;Signal;HPM_P1;HPM_P2
2021/12/30 00:01:28;;;;;;;0.40;0.40;;;14.10;88.90;14.40;96071.00;;;;5053278;28;20229;-87
2021/12/30 00:03:56;;;;;;;0.40;0.40;;;14.10;88.90;14.40;96068.00;;;;5053817;28;20209;-87
2021/12/30 00:06:24;;;;;;;0.30;0.30;;;14.10;88.90;14.50;96069.00;;;;5053592;28;20618;-87
2021/12/30 00:08:53;;;;;;;4.20;0.63;;;14.10;88.90;14.50;96078.00;;;;5052397;28;20185;-87
2021/12/30 00:11:23;;;;;;;0.27;0.27;;;14.20;88.90;14.50;96074.00;;;;5053529;28;20227;-86
2021/12/30 00:13:50;;;;;;;0.80;0.50;;;14.20;88.90;14.60;96081.00;;;;5062043;28;20199;-87
2021/12/30 00:16:19;;;;;;;2.33;0.40;;;14.20;88.90;14.60;96081.00;;;;5053483;28;20193;-87
2021/12/30 00:18:47;;;;;;;0.30;0.30;;;14.20;88.90;14.60;96084.00;;;;5052082;28;20200;-87
2021/12/30 00:21:14;;;;;;;3.37;0.50;;;14.40;89.10;14.60;96089.00;;;;5053416;28;20588;-87
2021/12/30 00:23:42;;;;;;;1.83;0.80;;;14.30;89.00;14.70;96094.00;;;;5053144;28;20217;-87
2021/12/30 00:26:10;;;;;;;1.70;0.70;;;14.40;89.10;14.70;96115.00;;;;5052994;28;20201;-86
2021/12/30 00:28:38;;;;;;;2.40;0.50;;;14.40;89.10;14.70;96108.00;;;;5053885;28;20292;-87
2021/12/30 00:31:06;;;;;;;0.40;0.40;;;14.40;89.10;14.80;96108.00;;;;5053040;28;20300;-85
2021/12/30 00:33:34;;;;;;;2.53;0.40;;;14.50;89.10;14.80;96116.00;;;;5052757;28;20208;-87
2021/12/30 00:36:03;;;;;;;1.37;0.40;;;14.50;89.20;14.80;96123.00;;;;5052715;28;20201;-86
2021/12/30 00:38:30;;;;;;;0.40;0.40;;;14.50;89.10;14.90;96129.00;;;;5052282;28;20200;-86
2021/12/30 00:40:57;;;;;;;1.83;0.40;;;14.60;89.20;14.90;96134.00;;;;5052730;28;20209;-86
2021/12/30 00:43:24;;;;;;;2.37;0.20;;;14.60;89.30;14.90;96133.00;;;;5059112;28;20225;-86
2021/12/30 00:45:53;;;;;;;0.50;0.43;;;14.60;89.30;14.90;96148.00;;;;5053392;28;20650;-87
2021/12/30 00:48:20;;;;;;;2.93;0.50;;;14.60;89.30;15.00;96153.00;;;;5053134;28;20203;-86
2021/12/30 00:50:48;;;;;;;2.60;0.30;;;14.70;89.40;15.00;96140.00;;;;5051844;28;20219;-86
2021/12/30 00:53:16;;;;;;;0.30;0.30;;;14.70;89.30;15.10;96152.00;;;;5052948;28;20193;-85
2021/12/30 00:55:44;;;;;;;0.60;0.20;;;14.70;89.20;15.10;96152.00;;;;5051917;28;20620;-86
2021/12/30 00:58:12;;;;;;;1.57;0.20;;;15.10;89.40;15.10;96152.00;;;;5053030;28;20677;-86
2021/12/30 01:00:43;;;;;;;0.20;0.20;;;14.80;89.20;15.20;96155.00;;;;5052882;28;20236;-86
2021/12/30 01:03:14;;;;;;;2.33;0.40;;;14.80;89.10;15.20;96166.00;;;;5053323;28;20204;-86
2021/12/30 01:05:41;;;;;;;0.83;0.20;;;15.00;89.10;15.20;96177.00;;;;5053001;28;20540;-86
2021/12/30 01:08:10;;;;;;;0.33;0.30;;;14.90;89.10;15.20;96189.00;;;;5053437;28;20197;-85
2021/12/30 01:10:38;;;;;;;5.13;0.60;;;15.00;89.80;15.20;96176.00;;;;5032723;28;20224;-86
2021/12/30 01:13:14;;;;;;;0.20;0.20;;;14.90;89.00;15.30;96189.00;;;;5032755;28;20296;-86
2021/12/30 01:15:56;;;;;;;0.60;0.37;;;15.00;89.10;15.30;96202.00;;;;5047763;28;20275;-86
2021/12/30 01:18:36;;;;;;;1.33;0.30;;;15.00;89.10;15.30;96200.00;;;;5060394;28;20189;-86
2021/12/30 01:21:05;;;;;;;6.17;0.90;;;15.00;89.10;15.30;96207.00;;;;5048442;28;20216;-86
2021/12/30 01:23:32;;;;;;;0.30;0.30;;;15.00;89.10;15.30;96207.00;;;;5052650;28;20213;-87
2021/12/30 01:25:59;;;;;;;4.87;0.50;;;15.10;89.10;15.40;96213.00;;;;5052370;28;20197;-87
2021/12/30 01:28:28;;;;;;;1.47;0.50;;;15.20;89.10;15.40;96216.00;;;;5051616;28;20200;-86
2021/12/30 01:30:57;;;;;;;2.97;0.47;;;15.10;89.00;15.40;96220.00;;;;5038506;28;20775;-86
2021/12/30 01:33:25;;;;;;;5.23;0.60;;;15.00;88.90;15.50;96218.00;;;;5050763;28;20193;-86
2021/12/30 01:35:53;;;;;;;1.10;0.40;;;15.10;88.90;15.50;96232.00;;;;5055285;28;20199;-86
2021/12/30 01:38:20;;;;;;;3.17;0.70;;;15.20;88.90;15.50;96229.00;;;;5053256;28;20583;-86
2021/12/30 01:40:50;;;;;;;1.93;0.60;;;15.20;88.90;15.50;96214.00;;;;5052499;28;20689;-86
2021/12/30 01:43:18;;;;;;;0.40;0.40;;;15.20;88.90;15.50;96219.00;;;;5052709;28;20220;-85
2021/12/30 01:45:46;;;;;;;3.80;0.70;;;15.30;88.90;15.50;96219.00;;;;5052009;28;20279;-86
2021/12/30 01:48:15;;;;;;;0.40;0.40;;;15.20;88.80;15.50;96229.00;;;;5043164;28;20199;-86
2021/12/30 01:50:44;;;;;;;3.73;0.77;;;15.20;88.70;15.50;96233.00;;;;5051713;28;20216;-86
2021/12/30 01:53:11;;;;;;;2.57;0.80;;;15.30;88.80;15.60;96223.00;;;;5049696;28;20199;-88
2021/12/30 01:55:41;;;;;;;0.80;0.60;;;15.30;88.80;15.60;96240.00;;;;5047255;28;20202;-87
2021/12/30 01:58:09;;;;;;;0.60;0.60;;;15.30;88.60;15.60;96248.00;;;;5051917;28;20201;-86
2021/12/30 02:00:40;;;;;;;0.47;0.30;;;15.30;88.50;15.60;96250.00;;;;5051763;28;20220;-86
2021/12/30 02:03:09;;;;;;;1.87;0.77;;;15.30;88.60;15.60;96249.00;;;;5050987;28;20212;-86
2021/12/30 02:05:38;;;;;;;0.40;0.40;;;15.30;88.60;15.60;96262.00;;;;5051090;28;20550;-86
2021/12/30 02:08:12;;;;;;;0.93;0.30;;;15.30;88.70;15.70;96269.00;;;;5051582;28;20655;-86
2021/12/30 02:10:40;;;;;;;0.40;0.40;;;15.40;88.70;15.60;96271.00;;;;5037054;28;20697;-85
2021/12/30 02:13:07;;;;;;;3.70;0.50;;;15.30;88.70;15.70;96275.00;;;;5057662;28;20250;-86
2021/12/30 02:15:34;;;;;;;0.37;0.27;;;15.30;88.60;15.70;96270.00;;;;5051130;28;20200;-86
2021/12/30 02:18:02;;;;;;;6.70;0.93;;;15.40;88.70;15.70;96282.00;;;;5051461;28;20662;-86
2021/12/30 02:20:45;;;;;;;5.77;0.83;;;15.40;88.80;15.70;96276.00;;;;5050765;28;20303;-86
2021/12/30 02:23:19;;;;;;;12.43;0.67;;;15.40;88.80;15.70;96276.00;;;;5051370;28;20274;-85
2021/12/30 02:25:47;;;;;;;0.40;0.40;;;15.40;88.80;15.80;96262.00;;;;5050461;28;20215;-86
2021/12/30 02:28:19;;;;;;;9.90;1.00;;;15.50;88.90;15.80;96277.00;;;;5051194;28;20207;-86
2021/12/30 02:30:47;;;;;;;1.37;0.30;;;15.40;88.90;15.80;96271.00;;;;5050759;28;20217;-86
2021/12/30 02:33:14;;;;;;;11.27;1.43;;;15.40;88.90;15.80;96274.00;;;;5051129;28;20193;-86
2021/12/30 02:35:43;;;;;;;4.70;0.60;;;15.40;89.00;15.80;96268.00;;;;5050650;28;20207;-86
2021/12/30 02:38:11;;;;;;;15.23;1.97;;;15.40;89.00;15.80;96274.00;;;;5051216;28;20688;-86
2021/12/30 02:40:42;;;;;;;0.97;0.40;;;15.40;89.00;15.80;96273.00;;;;5048868;28;20216;-85
2021/12/30 02:43:15;;;;;;;0.30;0.30;;;15.30;88.90;15.80;96281.00;;;;5052305;28;20303;-86
2021/12/30 02:45:43;;;;;;;4.00;0.50;;;15.50;89.10;15.80;96282.00;;;;5051116;28;20192;-85
2021/12/30 02:48:15;;;;;;;0.23;0.23;;;15.50;89.10;15.80;96298.00;;;;5050686;28;20189;-86
2021/12/30 02:50:45;;;;;;;0.80;0.43;;;15.50;89.10;15.80;96297.00;;;;5051091;28;20220;-86
2021/12/30 02:53:14;;;;;;;0.30;0.30;;;15.50;89.20;15.80;96307.00;;;;5050797;28;20200;-86
2021/12/30 02:55:41;;;;;;;0.33;0.33;;;15.50;89.10;15.90;96315.00;;;;5050746;28;20207;-86
2021/12/30 02:58:09;;;;;;;0.30;0.30;;;15.50;89.10;15.90;96321.00;;;;5050297;28;20285;-86
2021/12/30 03:00:38;;;;;;;1.70;0.20;;;15.50;89.10;15.90;96328.00;;;;5050325;28;20220;-86
2021/12/30 03:03:05;;;;;;;0.37;0.20;;;15.50;89.10;15.90;96331.00;;;;5051057;28;20216;-86
2021/12/30 03:05:34;;;;;;;0.47;0.20;;;15.50;89.00;15.90;96336.00;;;;5037708;28;20199;-85
2021/12/30 03:08:03;;;;;;;4.13;0.57;;;15.60;89.00;15.90;96337.00;;;;5053678;28;20192;-86
2021/12/30 03:10:30;;;;;;;2.10;0.20;;;15.50;88.90;15.90;96338.00;;;;5054707;28;20212;-85
2021/12/30 03:13:03;;;;;;;0.10;0.10;;;15.50;88.90;15.90;96349.00;;;;5054635;28;20200;-86
2021/12/30 03:15:32;;;;;;;5.53;0.40;;;15.50;88.90;15.90;96353.00;;;;5054236;28;20192;-86
2021/12/30 03:18:00;;;;;;;0.20;0.20;;;15.50;88.80;15.90;96361.00;;;;5054578;28;20561;-86
2021/12/30 03:20:27;;;;;;;0.10;0.10;;;15.50;88.80;15.90;96369.00;;;;5054024;28;20246;-86
2021/12/30 03:22:54;;;;;;;0.10;0.10;;;15.50;88.70;15.80;96371.00;;;;5054324;28;20217;-85
2021/12/30 03:25:22;;;;;;;6.70;0.80;;;15.40;88.70;15.80;96366.00;;;;5053965;28;20201;-86
2021/12/30 03:27:49;;;;;;;0.67;0.13;;;15.50;88.70;15.80;96361.00;;;;5053879;28;20203;-86
2021/12/30 03:30:18;;;;;;;2.60;0.30;;;15.60;88.70;15.80;96358.00;;;;5053748;28;20216;-86
2021/12/30 03:32:46;;;;;;;0.30;0.10;;;15.40;88.60;15.80;96357.00;;;;5054370;28;20204;-85
2021/12/30 03:35:14;;;;;;;0.20;0.10;;;15.50;88.60;15.80;96364.00;;;;5053519;28;20189;-86
2021/12/30 03:37:42;;;;;;;0.87;0.30;;;15.50;88.50;15.80;96372.00;;;;5052893;28;20200;-86
2021/12/30 03:40:14;;;;;;;1.50;0.10;;;15.50;88.50;15.80;96380.00;;;;5053159;28;20209;-86
2021/12/30 03:42:43;;;;;;;1.37;0.20;;;15.50;88.40;15.80;96377.00;;;;5054584;28;20213;-85
2021/12/30 03:45:15;;;;;;;3.13;0.20;;;15.50;88.40;15.80;96381.00;;;;5053310;28;20669;-85
2021/12/30 03:47:47;;;;;;;3.97;0.40;;;15.50;88.40;15.80;96400.00;;;;5054533;28;20204;-85
2021/12/30 03:50:20;;;;;;;1.90;0.10;;;15.50;88.30;15.80;96403.00;;;;5054293;28;20221;-86
2021/12/30 03:52:50;;;;;;;6.93;0.63;;;15.40;88.30;15.80;96404.00;;;;5053670;28;20188;-85
2021/12/30 03:55:20;;;;;;;1.07;0.30;;;15.50;88.20;15.70;96416.00;;;;5052894;28;20190;-85
2021/12/30 03:57:51;;;;;;;0.27;0.17;;;15.40;88.20;15.80;96430.00;;;;5053916;28;20196;-85
2021/12/30 04:00:19;;;;;;;0.97;0.30;;;15.40;88.10;15.80;96425.00;;;;5053099;28;20224;-85
2021/12/30 04:02:46;;;;;;;0.87;0.20;;;15.40;88.10;15.80;96433.00;;;;5053052;28;20481;-85
2021/12/30 04:05:14;;;;;;;3.97;0.50;;;15.40;88.00;15.70;96429.00;;;;5053135;28;20192;-85
2021/12/30 04:07:41;;;;;;;2.50;0.20;;;15.40;88.10;15.70;96429.00;;;;5054060;28;20887;-85
2021/12/30 04:10:13;;;;;;;0.87;0.30;;;15.40;88.00;15.70;96433.00;;;;5053287;28;20212;-85
2021/12/30 04:12:40;;;;;;;1.70;0.30;;;15.40;87.90;15.70;96449.00;;;;5055180;28;20189;-87
2021/12/30 04:15:10;;;;;;;2.37;0.30;;;15.40;87.90;15.70;96460.00;;;;5055916;28;20203;-85
2021/12/30 04:17:37;;;;;;;16.63;0.80;;;15.40;87.90;15.70;96459.00;;;;5052737;28;20201;-84
2021/12/30 04:20:07;;;;;;;2.50;0.30;;;15.40;87.90;15.70;96455.00;;;;5052663;28;20637;-85
2021/12/30 04:22:34;;;;;;;2.10;0.40;;;15.40;88.00;15.70;96457.00;;;;5052886;28;20239;-87
2021/12/30 04:25:02;;;;;;;10.57;1.00;;;15.40;88.00;15.70;96467.00;;;;5052645;28;20225;-87
2021/12/30 04:27:29;;;;;;;0.73;0.40;;;15.40;88.00;15.70;96469.00;;;;5052700;28;20205;-85
2021/12/30 04:29:56;;;;;;;5.40;0.40;;;15.40;88.00;15.70;96471.00;;;;5053206;28;20216;-85
2021/12/30 04:32:25;;;;;;;9.63;0.60;;;15.40;88.00;15.70;96490.00;;;;5052463;28;20189;-85
2021/12/30 04:34:52;;;;;;;10.13;0.90;;;15.40;88.10;15.70;96479.00;;;;5052040;28;20590;-84
2021/12/30 04:37:19;;;;;;;5.17;0.50;;;15.40;88.10;15.80;96495.00;;;;5052686;28;20197;-84
2021/12/30 04:39:46;;;;;;;0.57;0.10;;;15.40;88.10;15.80;96493.00;;;;5053040;28;20244;-84
2021/12/30 04:42:13;;;;;;;0.47;0.20;;;15.40;88.10;15.80;96499.00;;;;5051239;28;20199;-84
2021/12/30 04:44:40;;;;;;;5.40;0.50;;;15.40;88.20;15.80;96505.00;;;;5070935;28;20224;-84
2021/12/30 04:47:07;;;;;;;0.57;0.30;;;15.40;88.20;15.80;96517.00;;;;5059539;28;20216;-84
2021/12/30 04:49:35;;;;;;;15.03;0.87;;;15.40;88.20;15.90;96517.00;;;;5052428;28;20223;-84
2021/12/30 04:52:03;;;;;;;1.00;0.30;;;15.40;88.20;15.90;96527.00;;;;5070416;28;20202;-83
2021/12/30 04:54:31;;;;;;;0.77;0.47;;;15.40;88.20;15.90;96532.00;;;;5067264;28;20288;-84
2021/12/30 04:56:58;;;;;;;1.60;0.20;;;15.50;88.30;15.90;96543.00;;;;5052347;28;20192;-84
2021/12/30 04:59:25;;;;;;;0.20;0.10;;;15.50;88.40;16.00;96540.00;;;;5052539;28;20565;-84
2021/12/30 05:01:52;;;;;;;0.60;0.20;;;15.50;88.30;16.00;96553.00;;;;5053091;28;20197;-84
2021/12/30 05:04:19;;;;;;;12.33;0.83;;;15.50;88.30;16.00;96556.00;;;;5052454;28;20231;-84
2021/12/30 05:06:47;;;;;;;0.43;0.30;;;15.50;88.30;16.00;96569.00;;;;5052817;28;20199;-84
2021/12/30 05:09:14;;;;;;;0.40;0.27;;;15.60;88.20;16.00;96572.00;;;;5052826;28;20380;-84
2021/12/30 05:11:42;;;;;;;11.80;1.10;;;15.60;88.30;16.10;96571.00;;;;5052076;28;20203;-84
2021/12/30 05:14:09;;;;;;;3.07;0.70;;;15.60;88.30;16.10;96568.00;;;;5052308;28;20209;-84
2021/12/30 05:16:37;;;;;;;18.97;1.13;;;15.60;88.20;16.10;96567.00;;;;5051826;28;20231;-84
2021/12/30 05:19:04;;;;;;;0.20;0.20;;;15.60;88.10;16.20;96570.00;;;;5052457;28;20654;-84
2021/12/30 05:21:32;;;;;;;2.47;0.47;;;15.60;88.00;16.20;96572.00;;;;5052905;28;20227;-84
2021/12/30 05:24:01;;;;;;;0.13;0.10;;;15.70;88.10;16.20;96576.00;;;;5052217;28;20224;-83
2021/12/30 05:26:29;;;;;;;0.20;0.20;;;15.70;87.90;16.20;96573.00;;;;5052487;28;20201;-84
2021/12/30 05:28:56;;;;;;;0.67;0.10;;;15.70;87.90;16.20;96577.00;;;;5051103;28;20195;-84
2021/12/30 05:31:24;;;;;;;0.27;0.20;;;15.70;88.00;16.20;96579.00;;;;5052288;28;20209;-84
2021/12/30 05:33:51;;;;;;;0.10;0.10;;;15.70;87.90;16.20;96588.00;;;;5052709;28;20217;-84
2021/12/30 05:36:19;;;;;;;0.10;0.10;;;15.70;87.90;16.20;96589.00;;;;5052099;28;20197;-84
2021/12/30 05:38:48;;;;;;;0.17;0.17;;;15.70;87.80;16.20;96590.00;;;;5052204;28;20196;-84
2021/12/30 05:41:16;;;;;;;0.47;0.20;;;15.70;87.70;16.20;96583.00;;;;5051759;28;20262;-84
2021/12/30 05:43:43;;;;;;;1.40;0.40;;;15.80;87.80;16.20;96588.00;;;;5057066;28;20224;-84
2021/12/30 05:46:13;;;;;;;2.13;0.30;;;15.70;87.60;16.20;96585.00;;;;5051736;28;20189;-84
2021/12/30 05:48:40;;;;;;;0.20;0.20;;;15.70;87.50;16.20;96596.00;;;;5052108;28;20636;-84
2021/12/30 05:51:07;;;;;;;0.90;0.27;;;15.80;87.50;16.20;96598.00;;;;5051989;28;20562;-84
2021/12/30 05:53:34;;;;;;;0.50;0.20;;;15.80;87.50;16.20;96608.00;;;;5054701;28;20184;-84
2021/12/30 05:56:01;;;;;;;5.00;0.40;;;15.70;87.40;16.20;96616.00;;;;5051819;28;20189;-84
2021/12/30 05:58:29;;;;;;;1.93;0.57;;;15.80;87.60;16.20;96617.00;;;;5051242;28;20199;-84
2021/12/30 06:00:57;;;;;;;2.23;0.50;;;15.80;87.60;16.20;96620.00;;;;5051536;28;20228;-84
2021/12/30 06:03:24;;;;;;;0.20;0.20;;;15.80;87.60;16.20;96617.00;;;;5051922;28;20204;-84
2021/12/30 06:05:51;;;;;;;0.20;0.20;;;15.80;87.40;16.20;96618.00;;;;5051475;28;20204;-83
2021/12/30 06:08:19;;;;;;;0.20;0.20;;;15.80;88.20;16.20;96625.00;;;;5052392;28;20215;-84
2021/12/30 06:10:46;;;;;;;11.07;1.17;;;15.80;87.60;16.20;96634.00;;;;5051719;28;20208;-84
2021/12/30 06:13:13;;;;;;;0.40;0.40;;;15.80;87.50;16.20;96641.00;;;;5051059;28;20196;-84
2021/12/30 06:15:42;;;;;;;0.20;0.20;;;15.80;87.40;16.20;96643.00;;;;5051194;28;20271;-83
2021/12/30 06:18:09;;;;;;;1.07;0.13;;;15.80;87.40;16.20;96639.00;;;;5051552;28;20200;-84
2021/12/30 06:20:36;;;;;;;0.40;0.23;;;15.80;87.50;16.20;96637.00;;;;5051620;28;20215;-84
2021/12/30 06:23:03;;;;;;;9.37;0.50;;;15.70;87.50;16.20;96632.00;;;;5051957;28;20201;-84
2021/12/30 06:25:30;;;;;;;5.07;0.70;;;15.70;87.60;16.20;96630.00;;;;5050780;28;20227;-84
2021/12/30 06:27:57;;;;;;;8.23;0.83;;;15.80;87.60;16.30;96636.00;;;;5052059;28;20211;-84
2021/12/30 06:30:26;;;;;;;0.20;0.20;;;15.80;87.50;16.30;96641.00;;;;5051033;28;20684;-84
2021/12/30 06:32:55;;;;;;;0.00;0.00;;;15.80;87.40;16.30;96645.00;;;;5051349;28;20189;-84
2021/12/30 06:35:22;;;;;;;0.10;0.10;;;15.80;88.10;16.30;96654.00;;;;5046655;28;20203;-84
2021/12/30 06:37:50;;;;;;;0.20;0.20;;;15.80;87.50;16.30;96657.00;;;;5051236;28;20216;-84
2021/12/30 06:40:17;;;;;;;0.20;0.20;;;15.80;87.60;16.30;96665.00;;;;5051486;28;20219;-84
2021/12/30 06:42:45;;;;;;;0.70;0.10;;;15.80;88.30;16.30;96673.00;;;;5054479;28;20546;-83
2021/12/30 06:45:13;;;;;;;1.07;0.17;;;15.80;87.50;16.30;96675.00;;;;5055276;28;20705;-84
2021/12/30 06:47:41;;;;;;;1.93;0.20;;;15.90;87.50;16.30;96686.00;;;;5055373;28;20669;-84
2021/12/30 06:50:12;;;;;;;0.40;0.40;;;15.90;87.50;16.30;96685.00;;;;5054839;28;20205;-84
2021/12/30 06:52:39;;;;;;;3.83;0.70;;;15.90;87.40;16.30;96689.00;;;;5055049;28;20206;-84
2021/12/30 06:55:08;;;;;;;1.07;0.77;;;15.90;87.40;16.30;96695.00;;;;5055489;28;20205;-84
2021/12/30 06:57:36;;;;;;;0.50;0.50;;;15.90;87.40;16.40;96693.00;;;;5055284;28;20551;-84
2021/12/30 07:00:06;;;;;;;11.20;1.00;;;15.90;88.20;16.40;96690.00;;;;5054571;28;20212;-84
2021/12/30 07:02:34;;;;;;;0.40;0.20;;;15.90;87.50;16.40;96692.00;;;;5055119;28;20215;-84
2021/12/30 07:05:01;;;;;;;1.63;0.20;;;15.90;87.60;16.40;96694.00;;;;5054321;28;20701;-85
2021/12/30 07:07:29;;;;;;;26.07;1.03;;;15.90;87.60;16.40;96694.00;;;;5054711;28;20204;-84
2021/12/30 07:09:56;;;;;;;0.73;0.20;;;16.00;87.60;16.40;96682.00;;;;5035219;28;20589;-84
2021/12/30 07:12:23;;;;;;;0.37;0.30;;;16.00;87.60;16.40;96686.00;;;;5043606;28;20188;-84
2021/12/30 07:14:50;;;;;;;2.43;0.30;;;16.00;87.60;16.40;96697.00;;;;5074944;28;20200;-84
2021/12/30 07:17:17;;;;;;;11.07;1.20;;;16.00;87.60;16.50;96692.00;;;;5068192;28;20202;-84
2021/12/30 07:19:44;;;;;;;0.63;0.30;;;16.00;87.70;16.50;96701.00;;;;5054365;28;20588;-84
2021/12/30 07:22:11;;;;;;;43.27;3.00;;;16.00;87.60;16.50;96698.00;;;;5054857;28;20193;-84
2021/12/30 07:24:40;;;;;;;13.10;0.73;;;16.00;87.70;16.60;96697.00;;;;5054219;28;20223;-84
2021/12/30 07:27:07;;;;;;;3.23;0.80;;;16.10;88.40;16.60;96710.00;;;;5054125;28;20196;-84
2021/12/30 07:29:34;;;;;;;3.33;0.40;;;16.10;87.70;16.60;96714.00;;;;5054859;28;20229;-84
2021/12/30 07:32:01;;;;;;;16.73;0.83;;;16.10;87.70;16.60;96722.00;;;;5054773;28;20204;-84
2021/12/30 07:34:28;;;;;;;0.50;0.20;;;16.10;87.70;16.60;96721.00;;;;5054441;28;20208;-84
2021/12/30 07:36:55;;;;;;;0.20;0.20;;;16.10;87.70;16.60;96718.00;;;;5054102;28;20200;-84
2021/12/30 07:39:22;;;;;;;1.27;0.20;;;16.10;87.80;16.60;96724.00;;;;5053967;28;20208;-84
2021/12/30 07:41:50;;;;;;;8.50;0.90;;;16.10;87.80;16.70;96717.00;;;;5054187;28;20211;-84
2021/12/30 07:44:17;;;;;;;3.27;0.37;;;16.00;87.60;16.70;96724.00;;;;5054197;28;20233;-83
2021/12/30 07:46:45;;;;;;;3.40;0.30;;;16.10;87.50;16.70;96728.00;;;;5053899;28;20203;-84
2021/12/30 07:49:12;;;;;;;1.50;0.27;;;16.10;86.90;16.70;96717.00;;;;5053598;28;20662;-84
2021/12/30 07:51:39;;;;;;;3.73;0.20;;;16.10;87.50;16.70;96718.00;;;;5052144;28;20190;-84
2021/12/30 07:54:06;;;;;;;0.10;0.10;;;16.20;87.60;16.70;96723.00;;;;5053888;28;20192;-84
2021/12/30 07:56:33;;;;;;;0.10;0.10;;;16.20;87.60;16.70;96724.00;;;;5053921;28;20193;-84
2021/12/30 07:59:02;;;;;;;4.73;0.57;;;16.20;87.70;16.70;96713.00;;;;5054650;28;20204;-84
2021/12/30 08:06:33;;;;;;;4.57;0.40;;;16.20;87.60;16.70;96718.00;;;;5072297;28;20239;-90
2021/12/30 08:09:00;;;;;;;7.40;0.50;;;16.20;87.60;16.70;96722.00;;;;5074338;28;20630;-90
2021/12/30 08:11:28;;;;;;;0.30;0.30;;;16.20;87.60;16.80;96718.00;;;;5074222;28;20195;-92
2021/12/30 08:13:55;;;;;;;0.40;0.40;;;16.20;87.60;16.80;96721.00;;;;5061452;28;20221;-90
2021/12/30 08:16:24;;;;;;;0.30;0.30;;;16.20;87.60;16.70;96724.00;;;;5054019;28;20231;-91
2021/12/30 08:18:51;;;;;;;0.50;0.33;;;16.20;87.70;16.80;96722.00;;;;5054274;28;20197;-92
2021/12/30 08:21:19;;;;;;;6.00;0.73;;;16.20;87.90;16.80;96720.00;;;;5054268;28;20207;-91
2021/12/30 08:23:47;;;;;;;4.10;0.70;;;16.20;87.90;16.80;96720.00;;;;5053880;28;20236;-91
2021/12/30 08:26:15;;;;;;;4.60;0.70;;;16.20;88.00;16.80;96713.00;;;;5053390;28;20217;-91
2021/12/30 08:28:42;;;;;;;1.50;0.30;;;16.20;88.00;16.90;96713.00;;;;5053771;28;20201;-91
2021/12/30 08:31:09;;;;;;;0.40;0.40;;;16.60;89.00;16.90;96728.00;;;;5053968;28;20258;-90
2021/12/30 08:33:38;;;;;;;0.73;0.40;;;16.30;88.10;16.90;96713.00;;;;5046819;28;20699;-90
2021/12/30 08:36:06;;;;;;;5.00;0.90;;;16.30;88.20;16.90;96718.00;;;;5033564;28;20233;-91
2021/12/30 08:38:33;;;;;;;2.10;0.40;;;16.30;88.20;16.90;96702.00;;;;5052851;28;20284;-91
2021/12/30 08:41:00;;;;;;;2.60;0.60;;;16.30;88.20;17.00;96706.00;;;;5043826;28;20190;-91
2021/12/30 08:43:28;;;;;;;0.47;0.40;;;17.30;88.90;17.00;96695.00;;;;5042178;28;20231;-91
2021/12/30 08:45:55;;;;;;;1.70;0.80;;;17.70;89.00;17.00;96713.00;;;;5053149;28;20226;-91
2021/12/30 08:48:23;;;;;;;0.70;0.50;;;16.40;88.10;17.00;96714.00;;;;5055282;28;20295;-91
2021/12/30 08:50:51;;;;;;;0.80;0.50;;;16.40;88.10;17.00;96718.00;;;;5045748;28;20229;-91
2021/12/30 08:53:18;;;;;;;0.27;0.27;;;16.60;88.00;17.00;96725.00;;;;5050377;28;20229;-90
2021/12/30 08:55:46;;;;;;;8.40;1.30;;;17.10;88.30;17.10;96729.00;;;;5053045;28;20201;-91
2021/12/30 08:58:13;;;;;;;5.73;0.50;;;17.60;88.70;17.10;96725.00;;;;5048479;28;20734;-90
2021/12/30 09:00:42;;;;;;;0.40;0.40;;;16.50;88.00;17.10;96726.00;;;;5042242;28;20199;-91
2021/12/30 09:03:10;;;;;;;0.30;0.30;;;18.20;89.10;17.10;96731.00;;;;5055183;28;20188;-90
2021/12/30 09:05:37;;;;;;;0.87;0.20;;;16.50;88.10;17.10;96747.00;;;;5052043;28;20232;-90
2021/12/30 09:08:07;;;;;;;2.43;0.60;;;16.50;88.10;17.10;96741.00;;;;5052730;28;20202;-91
2021/12/30 09:10:40;;;;;;;8.57;0.80;;;16.60;88.20;17.20;96728.00;;;;5053278;28;20239;-91
2021/12/30 09:13:08;;;;;;;0.60;0.50;;;16.60;88.20;17.20;96735.00;;;;5053473;28;20226;-90
2021/12/30 09:15:36;;;;;;;0.40;0.40;;;16.60;88.20;17.20;96736.00;;;;5052550;28;20388;-90
2021/12/30 09:18:05;;;;;;;0.30;0.30;;;16.60;88.20;17.30;96731.00;;;;5053349;28;20197;-91
2021/12/30 09:20:33;;;;;;;3.13;0.40;;;16.70;88.20;17.30;96744.00;;;;5051607;28;20274;-91
2021/12/30 09:23:04;;;;;;;0.30;0.30;;;16.60;88.00;17.30;96740.00;;;;5038669;28;20209;-91
2021/12/30 09:25:34;;;;;;;1.40;0.33;;;16.70;88.00;17.30;96748.00;;;;5032787;28;20797;-90
2021/12/30 09:28:02;;;;;;;0.27;0.20;;;16.70;87.90;17.20;96732.00;;;;5034401;28;20201;-91
2021/12/30 09:30:30;;;;;;;0.93;0.50;;;16.70;88.00;17.30;96756.00;;;;5052973;28;20279;-89
2021/12/30 09:33:01;;;;;;;2.30;1.07;;;16.70;87.90;17.30;96759.00;;;;5052797;28;20655;-90
2021/12/30 09:35:30;;;;;;;0.70;0.60;;;16.70;87.70;17.30;96757.00;;;;5043985;28;20544;-91
2021/12/30 09:37:58;;;;;;;4.23;0.60;;;17.90;88.40;17.30;96757.00;;;;5054192;28;20196;-89
2021/12/30 09:40:27;;;;;;;4.57;0.50;;;16.80;87.70;17.30;96750.00;;;;5049916;28;20189;-92
2021/12/30 09:43:01;;;;;;;24.73;1.87;;;16.80;87.70;17.30;96751.00;;;;5051472;28;20580;-91
2021/12/30 09:45:30;;;;;;;2.23;0.70;;;16.80;87.70;17.40;96759.00;;;;5054588;28;20217;-91
2021/12/30 09:48:00;;;;;;;14.47;1.10;;;16.80;87.70;17.40;96762.00;;;;5054486;28;20232;-91
2021/12/30 09:50:32;;;;;;;0.37;0.30;;;16.90;87.70;17.40;96755.00;;;;5052966;28;20192;-90
2021/12/30 09:53:01;;;;;;;0.33;0.27;;;16.90;87.60;17.40;96751.00;;;;5053079;28;20684;-91
2021/12/30 09:55:29;;;;;;;4.80;0.50;;;17.10;87.80;17.40;96746.00;;;;5052326;28;20283;-90
2021/12/30 09:57:57;;;;;;;0.40;0.40;;;16.90;87.70;17.50;96741.00;;;;5052817;28;20193;-91
2021/12/30 10:00:25;;;;;;;1.97;0.60;;;16.90;87.50;17.50;96734.00;;;;5053095;28;20322;-91
2021/12/30 10:02:53;;;;;;;12.97;1.30;;;17.00;87.70;17.50;96733.00;;;;5048067;28;20543;-90
2021/12/30 10:05:24;;;;;;;0.97;0.40;;;17.00;87.70;17.60;96723.00;;;;5038619;28;20217;-91
2021/12/30 10:08:13;;;;;;;0.47;0.47;;;17.00;87.80;17.60;96729.00;;;;5052637;28;20283;-91
2021/12/30 10:10:43;;;;;;;5.43;1.00;;;17.10;87.80;17.60;96728.00;;;;5043387;28;20194;-91
2021/12/30 10:13:23;;;;;;;6.70;0.77;;;18.40;88.80;17.60;96720.00;;;;5040477;28;20216;-90
2021/12/30 10:15:55;;;;;;;4.30;0.47;;;17.80;88.10;17.60;96724.00;;;;5052450;28;20295;-89
2021/12/30 10:18:24;;;;;;;0.40;0.40;;;17.10;87.70;17.70;96722.00;;;;5052872;28;20196;-91
2021/12/30 10:20:53;;;;;;;1.50;0.30;;;17.10;87.80;17.70;96724.00;;;;5052889;28;20200;-91
2021/12/30 10:23:23;;;;;;;1.37;0.60;;;17.10;87.80;17.70;96733.00;;;;5052690;28;20243;-90
2021/12/30 10:25:53;;;;;;;1.07;0.40;;;17.60;88.20;17.80;96741.00;;;;5051965;28;20228;-89
2021/12/30 10:28:31;;;;;;;2.00;0.87;;;17.10;87.90;17.80;96730.00;;;;5041082;28;20197;-89
2021/12/30 10:31:15;;;;;;;0.90;0.50;;;17.40;87.90;17.80;96728.00;;;;5049723;28;20242;-91
2021/12/30 10:33:50;;;;;;;0.40;0.40;;;17.20;87.90;17.80;96722.00;;;;5056408;28;20288;-89
2021/12/30 10:36:21;;;;;;;0.40;0.40;;;17.30;87.80;17.90;96727.00;;;;5053562;28;20642;-91
2021/12/30 10:38:49;;;;;;;1.00;0.40;;;17.30;87.90;17.90;96733.00;;;;5053153;28;20204;-90
2021/12/30 10:41:16;;;;;;;2.80;0.47;;;17.30;88.00;17.90;96727.00;;;;5050893;28;20654;-91
2021/12/30 10:43:47;;;;;;;2.17;0.50;;;17.40;88.10;18.00;96734.00;;;;5043808;28;20227;-90
2021/12/30 10:46:19;;;;;;;2.60;1.10;;;17.40;88.80;18.00;96732.00;;;;5052563;28;20300;-91
2021/12/30 10:48:57;;;;;;;0.60;0.60;;;17.40;87.90;18.10;96735.00;;;;5052954;28;20173;-92
2021/12/30 10:51:35;;;;;;;0.40;0.40;;;17.40;87.90;18.10;96728.00;;;;5042178;28;20190;-91
2021/12/30 10:54:16;;;;;;;4.67;0.70;;;17.80;88.50;18.20;96736.00;;;;5052362;28;20670;-94
2021/12/30 10:56:46;;;;;;;3.30;0.60;;;17.50;88.00;18.20;96745.00;;;;5053623;28;20185;-91
2021/12/30 10:59:25;;;;;;;0.40;0.40;;;17.50;88.20;18.20;96734.00;;;;5052596;28;20204;-91
2021/12/30 11:01:57;;;;;;;3.13;0.20;;;17.60;88.00;18.30;96740.00;;;;5051721;28;20627;-91
2021/12/30 11:04:37;;;;;;;0.40;0.40;;;18.80;88.80;18.30;96745.00;;;;5044655;28;20777;-91
2021/12/30 11:07:06;;;;;;;3.93;0.80;;;17.80;87.90;18.40;96745.00;;;;5052741;28;20769;-91